sensor_id;sensor_type;location;lat;lon;timestamp;temperature;humidity
2124;DHT22;1068;52.460;13.528;2023-06-26T02:56:06;20.60;99.90
2124;DHT22;1068;52.460;13.528;2023-06-26T02:58:32;20.50;99.90
2124;DHT22;1068;52.460;13.528;2023-06-26T03:00:59;20.50;99.90
2124;DHT22;1068;52.460;13.528;2023-06-26T03:03:26;20.60;99.90
2124;DHT22;1068;52.460;13.528;2023-06-26T03:05:52;20.50;99.90
2124;DHT22;1068;52.460;13.528;2023-06-26T03:08:20;20.40;99.90
2124;DHT22;1068;52.460;13.528;2023-06-26T03:10:47;20.50;99.90
2124;DHT22;1068;52.460;13.528;2023-06-26T03:13:13;20.20;99.90
2124;DHT22;1068;52.460;13.528;2023-06-26T03:15:40;20.40;99.90
2124;DHT22;1068;52.460;13.528;2023-06-26T03:18:06;20.40;99.90
2124;DHT22;1068;52.460;13.528;2023-06-26T03:20:32;20.50;99.90
2124;DHT22;1068;52.460;13.528;2023-06-26T03:22:59;20.50;99.90
2124;DHT22;1068;52.460;13.528;2023-06-26T03:25:27;20.50;99.90
2124;DHT22;1068;52.460;13.528;2023-06-26T03:27:53;20.40;99.90
2124;DHT22;1068;52.460;13.528;2023-06-26T03:30:20;20.50;99.90
2124;DHT22;1068;52.460;13.528;2023-06-26T03:32:46;20.40;99.90
2124;DHT22;1068;52.460;13.528;2023-06-26T03:35:13;20.50;99.90
2124;DHT22;1068;52.460;13.528;2023-06-26T03:37:40;20.40;99.90
2124;DHT22;1068;52.460;13.528;2023-06-26T03:40:07;20.30;99.90
2124;DHT22;1068;52.460;13.528;2023-06-26T03:42:36;20.20;99.90
2124;DHT22;1068;52.460;13.528;2023-06-26T03:45:02;20.10;99.90
2124;DHT22;1068;52.460;13.528;2023-06-26T03:47:29;20.10;99.90
2124;DHT22;1068;52.460;13.528;2023-06-26T03:49:55;20.00;99.90
2124;DHT22;1068;52.460;13.528;2023-06-26T03:52:22;20.00;99.90
2124;DHT22;1068;52.460;13.528;2023-06-26T03:54:49;20.10;99.90
2124;DHT22;1068;52.460;13.528;2023-06-26T03:57:15;20.20;99.90
2124;DHT22;1068;52.460;13.528;2023-06-26T03:59:43;20.20;99.90
2124;DHT22;1068;52.460;13.528;2023-06-26T04:02:09;20.00;99.90
2124;DHT22;1068;52.460;13.528;2023-06-26T04:04:37;20.00;99.90
2124;DHT22;1068;52.460;13.528;2023-06-26T04:07:04;20.20;99.90
2124;DHT22;1068;52.460;13.528;2023-06-26T04:09:31;20.30;99.90
2124;DHT22;1068;52.460;13.528;2023-06-26T04:11:57;20.30;99.90
2124;DHT22;1068;52.460;13.528;2023-06-26T04:14:24;20.50;99.90
2124;DHT22;1068;52.460;13.528;2023-06-26T04:16:51;20.60;99.90
2124;DHT22;1068;52.460;13.528;2023-06-26T04:19:18;20.60;99.90
2124;DHT22;1068;52.460;13.528;2023-06-26T04:21:44;20.70;99.90
2124;DHT22;1068;52.460;13.528;2023-06-26T04:24:11;20.80;99.90
2124;DHT22;1068;52.460;13.528;2023-06-26T04:26:38;20.90;99.90
2124;DHT22;1068;52.460;13.528;2023-06-26T04:29:06;20.90;99.90
2124;DHT22;1068;52.460;13.528;2023-06-26T04:31:32;21.10;99.90
2124;DHT22;1068;52.460;13.528;2023-06-26T04:34:00;21.10;99.90
2124;DHT22;1068;52.460;13.528;2023-06-26T04:36:27;21.10;99.90
2124;DHT22;1068;52.460;13.528;2023-06-26T04:38:54;20.90;99.90
2124;DHT22;1068;52.460;13.528;2023-06-26T04:41:20;21.00;99.90
2124;DHT22;1068;52.460;13.528;2023-06-26T04:43:47;21.00;99.90
2124;DHT22;1068;52.460;13.528;2023-06-26T04:46:13;21.20;99.90
2124;DHT22;1068;52.460;13.528;2023-06-26T04:48:40;21.20;99.90
2124;DHT22;1068;52.460;13.528;2023-06-26T04:51:08;21.10;99.90
2124;DHT22;1068;52.460;13.528;2023-06-26T04:53:34;21.10;99.90
2124;DHT22;1068;52.460;13.528;2023-06-26T04:56:01;21.10;99.90
2124;DHT22;1068;52.460;13.528;2023-06-26T04:58:27;21.30;99.90
2124;DHT22;1068;52.460;13.528;2023-06-26T05:00:54;21.20;99.90
2124;DHT22;1068;52.460;13.528;2023-06-26T05:03:21;21.30;99.90
2124;DHT22;1068;52.460;13.528;2023-06-26T05:05:48;21.40;99.90
2124;DHT22;1068;52.460;13.528;2023-06-26T05:08:18;21.40;99.90
2124;DHT22;1068;52.460;13.528;2023-06-26T05:10:45;21.50;99.90
2124;DHT22;1068;52.460;13.528;2023-06-26T05:13:12;21.50;99.90
2124;DHT22;1068;52.460;13.528;2023-06-26T05:15:40;21.80;99.90
2124;DHT22;1068;52.460;13.528;2023-06-26T05:18:07;21.90;99.90
2124;DHT22;1068;52.460;13.528;2023-06-26T05:20:34;21.90;99.90
2124;DHT22;1068;52.460;13.528;2023-06-26T05:23:01;22.00;99.90
2124;DHT22;1068;52.460;13.528;2023-06-26T05:25:30;22.00;99.90
2124;DHT22;1068;52.460;13.528;2023-06-26T05:27:57;22.10;99.90
2124;DHT22;1068;52.460;13.528;2023-06-26T05:30:25;22.30;99.90
2124;DHT22;1068;52.460;13.528;2023-06-26T05:32:52;22.20;99.90
2124;DHT22;1068;52.460;13.528;2023-06-26T05:35:20;22.30;99.90
2124;DHT22;1068;52.460;13.528;2023-06-26T05:37:48;22.40;99.90
2124;DHT22;1068;52.460;13.528;2023-06-26T05:40:16;22.50;99.90
2124;DHT22;1068;52.460;13.528;2023-06-26T05:42:45;22.60;99.90
2124;DHT22;1068;52.460;13.528;2023-06-26T05:45:11;22.60;99.90
2124;DHT22;1068;52.460;13.528;2023-06-26T05:47:38;22.70;99.90
2124;DHT22;1068;52.460;13.528;2023-06-26T05:50:08;22.80;99.90
2124;DHT22;1068;52.460;13.528;2023-06-26T05:52:35;23.30;99.90
2124;DHT22;1068;52.460;13.528;2023-06-26T05:55:02;23.60;99.90
2124;DHT22;1068;52.460;13.528;2023-06-26T05:57:29;23.70;99.90
2124;DHT22;1068;52.460;13.528;2023-06-26T05:59:58;23.70;99.90
2124;DHT22;1068;52.460;13.528;2023-06-26T06:02:24;23.90;99.90
2124;DHT22;1068;52.460;13.528;2023-06-26T06:04:51;24.10;99.90
2124;DHT22;1068;52.460;13.528;2023-06-26T06:07:17;24.30;99.90
2124;DHT22;1068;52.460;13.528;2023-06-26T06:09:44;24.40;99.90
2124;DHT22;1068;52.460;13.528;2023-06-26T06:12:10;24.70;99.90
2124;DHT22;1068;52.460;13.528;2023-06-26T06:14:37;24.70;99.90
2124;DHT22;1068;52.460;13.528;2023-06-26T06:17:05;24.70;99.90
